Time;durP1;ratioP1;P1;durP2;ratioP2;P2;SDS_P1;SDS_P2;PMS_P1;PMS_P2;Temp;Humidity;BMP_temperature;BMP_pressure;BME280_temperature;BME280_humidity;BME280_pressure;Samples;Min_cycle;Max_cycle;Signal;HPM_P1;HPM_P2
2022/06/24 00:02:14;;;;;;;4.30;1.40;;;19.80;99.90;;;;;;6254758;28;20183;-81
2022/06/24 00:05:16;;;;;;;5.95;1.58;;;19.90;99.90;;;;;;6256021;28;20049;-80
2022/06/24 00:08:18;;;;;;;5.53;1.27;;;20.00;99.90;;;;;;6253036;28;20045;-82
2022/06/24 00:11:26;;;;;;;6.95;1.33;;;19.90;99.90;;;;;;6253841;28;20124;-80
2022/06/24 00:14:28;;;;;;;6.07;1.88;;;19.90;99.90;;;;;;6274611;28;20040;-81
2022/06/24 00:17:32;;;;;;;6.18;2.10;;;20.00;99.90;;;;;;6279330;28;20136;-81
2022/06/24 00:20:42;;;;;;;4.45;1.48;;;20.00;99.90;;;;;;6280330;28;20079;-82
2022/06/24 00:23:44;;;;;;;8.63;2.20;;;20.00;99.90;;;;;;6278660;28;20104;-80
2022/06/24 00:26:48;;;;;;;9.32;1.70;;;20.00;99.90;;;;;;6280371;28;20434;-80
2022/06/24 00:29:52;;;;;;;7.60;1.88;;;20.00;99.90;;;;;;6264930;28;20446;-79
2022/06/24 00:33:11;;;;;;;6.43;2.47;;;20.00;99.90;;;;;;6281593;28;20055;-81
2022/06/24 00:36:13;;;;;;;3.80;1.85;;;19.90;99.90;;;;;;6279229;28;20124;-80
2022/06/24 00:39:15;;;;;;;8.35;2.63;;;19.70;99.90;;;;;;6277973;28;20161;-80
2022/06/24 00:42:19;;;;;;;3.83;1.75;;;19.60;99.90;;;;;;6277289;28;20128;-80
2022/06/24 00:45:32;;;;;;;4.20;1.50;;;19.50;99.90;;;;;;6276449;28;20048;-81
2022/06/24 00:48:38;;;;;;;7.15;2.15;;;19.60;99.90;;;;;;6277569;28;20135;-79
2022/06/24 00:51:41;;;;;;;6.00;1.73;;;19.60;99.90;;;;;;6276247;28;20091;-80
2022/06/24 00:54:44;;;;;;;4.50;1.67;;;19.60;99.90;;;;;;6275042;28;20110;-80
2022/06/24 00:57:47;;;;;;;6.65;1.88;;;19.60;99.90;;;;;;6275458;28;20056;-84
2022/06/24 01:00:50;;;;;;;8.00;1.80;;;19.60;99.90;;;;;;6278258;28;20056;-82
2022/06/24 01:03:55;;;;;;;15.20;1.92;;;19.60;99.90;;;;;;6279761;28;20058;-80
2022/06/24 01:06:57;;;;;;;5.50;1.60;;;19.60;99.90;;;;;;6277568;28;20406;-81
2022/06/24 01:09:59;;;;;;;11.20;2.03;;;19.70;99.90;;;;;;6275463;28;20045;-81
2022/06/24 01:13:03;;;;;;;16.27;6.05;;;19.80;99.90;;;;;;6273893;28;20495;-78
2022/06/24 01:16:05;;;;;;;5.38;1.52;;;19.80;99.90;;;;;;6273537;28;20124;-78
2022/06/24 01:19:09;;;;;;;7.88;1.98;;;19.90;99.90;;;;;;6273058;28;20059;-79
2022/06/24 01:22:12;;;;;;;8.68;1.75;;;19.90;99.90;;;;;;6272251;28;20052;-79
2022/06/24 01:25:14;;;;;;;16.13;2.10;;;20.00;99.90;;;;;;6272256;28;20055;-77
2022/06/24 01:28:16;;;;;;;6.75;1.48;;;20.10;99.90;;;;;;6271898;28;20065;-78
2022/06/24 01:31:18;;;;;;;7.68;1.70;;;20.10;99.90;;;;;;6272848;28;20054;-78
2022/06/24 01:34:21;;;;;;;9.85;1.70;;;20.20;99.90;;;;;;6275353;28;20037;-79
2022/06/24 01:37:24;;;;;;;9.82;2.20;;;20.20;99.90;;;;;;6276035;28;20068;-80
2022/06/24 01:40:26;;;;;;;6.53;1.70;;;20.20;99.90;;;;;;6275824;28;20051;-77
2022/06/24 01:43:28;;;;;;;7.57;1.90;;;20.20;99.90;;;;;;6276099;28;20049;-78
2022/06/24 01:46:30;;;;;;;7.13;1.60;;;20.20;99.90;;;;;;6275353;28;20047;-79
2022/06/24 01:49:33;;;;;;;6.93;1.92;;;20.30;99.90;;;;;;6274453;28;20052;-77
2022/06/24 01:52:36;;;;;;;4.53;1.85;;;20.30;99.90;;;;;;6275505;28;20051;-77
2022/06/24 01:55:38;;;;;;;6.38;2.00;;;20.20;99.90;;;;;;6276033;28;20045;-79
2022/06/24 01:58:39;;;;;;;4.40;1.80;;;20.20;99.90;;;;;;6274821;28;20049;-77
2022/06/24 02:01:42;;;;;;;10.52;2.50;;;20.20;99.90;;;;;;6275145;28;20045;-78
2022/06/24 02:04:46;;;;;;;7.80;2.08;;;20.20;99.90;;;;;;6275923;28;20469;-77
2022/06/24 02:07:49;;;;;;;7.60;2.50;;;20.20;99.90;;;;;;6278348;28;20053;-80
2022/06/24 02:14:11;;;;;;;8.00;1.75;;;20.10;99.90;;;;;;6281335;28;20041;-80
2022/06/24 02:17:13;;;;;;;3.90;1.73;;;20.00;99.90;;;;;;6280016;28;20131;-80
2022/06/24 02:20:14;;;;;;;6.07;1.80;;;19.90;99.90;;;;;;6279926;28;20041;-79
2022/06/24 02:23:19;;;;;;;6.90;2.13;;;19.80;99.90;;;;;;6281563;28;20052;-78
2022/06/24 02:26:22;;;;;;;6.03;1.70;;;19.70;99.90;;;;;;6281003;28;20053;-80
2022/06/24 02:29:23;;;;;;;4.93;2.22;;;19.70;99.90;;;;;;6280677;28;20391;-78
2022/06/24 02:32:25;;;;;;;3.38;1.58;;;19.50;99.90;;;;;;6281472;28;20049;-80
2022/06/24 02:35:27;;;;;;;4.20;1.70;;;19.40;99.90;;;;;;6282202;28;20049;-79
2022/06/24 02:38:30;;;;;;;5.40;1.80;;;19.40;99.90;;;;;;6281521;28;20045;-79
2022/06/24 02:41:32;;;;;;;6.07;2.03;;;19.30;99.90;;;;;;6281585;28;20075;-79
2022/06/24 02:44:33;;;;;;;5.28;1.77;;;19.20;99.90;;;;;;6281056;28;20148;-80
2022/06/24 02:47:35;;;;;;;9.05;2.40;;;19.10;99.90;;;;;;6279706;28;20045;-79
2022/06/24 02:50:42;;;;;;;8.93;2.25;;;19.10;99.90;;;;;;6279586;28;20127;-77
2022/06/24 02:53:45;;;;;;;4.97;1.83;;;19.00;99.90;;;;;;6279315;28;20041;-79
2022/06/24 02:56:47;;;;;;;4.95;1.80;;;19.00;99.90;;;;;;6278554;28;20052;-79
2022/06/24 02:59:48;;;;;;;6.82;2.97;;;18.90;99.90;;;;;;6280343;28;20116;-81
2022/06/24 03:02:50;;;;;;;5.78;1.90;;;18.80;99.90;;;;;;6281067;28;20219;-78
2022/06/24 03:05:53;;;;;;;7.45;2.20;;;18.80;99.90;;;;;;6280361;28;20081;-80
2022/06/24 03:08:56;;;;;;;8.88;2.67;;;18.80;99.90;;;;;;6280164;28;20607;-78
2022/06/24 03:11:57;;;;;;;6.53;2.03;;;18.80;99.90;;;;;;6279679;28;20057;-81
2022/06/24 03:14:59;;;;;;;8.70;2.10;;;18.70;99.90;;;;;;6280659;28;20041;-81
2022/06/24 03:18:01;;;;;;;8.70;1.85;;;18.70;99.90;;;;;;6279701;28;20565;-78
2022/06/24 03:21:05;;;;;;;16.50;3.03;;;18.70;99.90;;;;;;6280501;28;20541;-80
2022/06/24 03:24:09;;;;;;;10.43;3.35;;;18.70;99.90;;;;;;6279978;28;20060;-79
2022/06/24 03:27:10;;;;;;;9.63;3.22;;;18.60;99.90;;;;;;6282195;28;20049;-79
2022/06/24 03:30:13;;;;;;;4.10;1.90;;;18.60;99.90;;;;;;6278867;28;20548;-80
2022/06/24 03:33:15;;;;;;;10.23;2.45;;;18.60;99.90;;;;;;6283008;28;20052;-80
2022/06/24 03:36:17;;;;;;;9.25;2.92;;;18.50;99.90;;;;;;6284398;28;20049;-80
2022/06/24 03:39:20;;;;;;;5.72;2.10;;;18.70;99.90;;;;;;6283151;28;20049;-81
2022/06/24 03:42:22;;;;;;;11.60;3.40;;;18.70;99.90;;;;;;6283036;28;20041;-80
2022/06/24 03:45:31;;;;;;;12.10;2.80;;;18.60;99.90;;;;;;6285176;28;20059;-80
2022/06/24 03:48:33;;;;;;;8.27;2.75;;;18.60;99.90;;;;;;6284263;28;20055;-80
2022/06/24 03:51:36;;;;;;;8.43;3.55;;;18.70;99.90;;;;;;6281037;28;20056;-80
2022/06/24 03:54:39;;;;;;;11.35;3.50;;;18.70;99.90;;;;;;6282153;28;20045;-79
2022/06/24 03:57:41;;;;;;;8.00;2.47;;;18.80;99.90;;;;;;6282717;28;20049;-81
2022/06/24 04:00:43;;;;;;;7.63;3.10;;;18.70;99.90;;;;;;6281171;28;20059;-81
2022/06/24 04:03:45;;;;;;;9.20;2.70;;;18.70;99.90;;;;;;6284860;28;20113;-83
2022/06/24 04:06:47;;;;;;;5.38;2.80;;;18.60;99.90;;;;;;6283086;28;20053;-82
2022/06/24 04:09:53;;;;;;;9.02;3.20;;;18.70;99.90;;;;;;6283347;28;20136;-82
2022/06/24 04:12:55;;;;;;;4.80;2.78;;;19.20;99.90;;;;;;6281834;28;20045;-81
2022/06/24 04:15:56;;;;;;;10.10;3.42;;;20.50;99.90;;;;;;6281612;28;20419;-80
2022/06/24 04:18:58;;;;;;;13.90;3.13;;;22.00;99.90;;;;;;6282168;28;20049;-80
2022/06/24 04:22:00;;;;;;;10.05;3.20;;;23.20;99.90;;;;;;6283206;28;20147;-82
2022/06/24 04:25:04;;;;;;;5.28;2.03;;;23.90;99.90;;;;;;6283408;28;20059;-83
2022/06/24 04:28:06;;;;;;;5.18;1.92;;;23.60;99.90;;;;;;6282032;28;20053;-80
2022/06/24 04:31:09;;;;;;;8.70;3.63;;;23.40;99.90;;;;;;6284256;28;20056;-84
2022/06/24 04:34:11;;;;;;;10.15;2.70;;;23.20;99.90;;;;;;6283226;28;20037;-81
2022/06/24 04:37:12;;;;;;;9.63;2.70;;;23.20;99.90;;;;;;6284091;28;20048;-82
2022/06/24 04:40:15;;;;;;;12.40;2.75;;;23.90;99.90;;;;;;6283766;28;20049;-80
2022/06/24 04:43:17;;;;;;;13.27;2.10;;;24.40;98.30;;;;;;6283715;28;20049;-81
2022/06/24 04:46:22;;;;;;;9.90;2.95;;;23.60;98.60;;;;;;6283559;28;20041;-81
2022/06/24 04:49:24;;;;;;;7.35;2.42;;;23.20;99.90;;;;;;6283197;28;20056;-81
2022/06/24 04:52:26;;;;;;;5.25;2.00;;;24.30;99.50;;;;;;6283364;28;20068;-80
2022/06/24 04:55:29;;;;;;;4.60;1.98;;;24.50;97.50;;;;;;6282375;28;20049;-79
2022/06/24 04:58:31;;;;;;;7.57;2.28;;;24.10;98.20;;;;;;6280017;28;20049;-79
2022/06/24 05:01:33;;;;;;;11.00;2.15;;;24.40;98.00;;;;;;6279750;28;20052;-79
2022/06/24 05:04:35;;;;;;;14.40;3.60;;;24.60;98.60;;;;;;6281896;28;20108;-79
2022/06/24 05:07:37;;;;;;;7.72;2.05;;;25.70;96.30;;;;;;6280911;28;20041;-80
2022/06/24 05:10:41;;;;;;;9.23;2.03;;;26.10;96.00;;;;;;6283717;28;20041;-80
2022/06/24 05:13:43;;;;;;;9.00;2.05;;;25.90;95.30;;;;;;6284032;28;20049;-78
2022/06/24 05:16:44;;;;;;;9.43;1.80;;;27.30;95.10;;;;;;6283987;28;20425;-81
2022/06/24 05:19:46;;;;;;;8.57;1.88;;;29.10;91.90;;;;;;6287166;28;20053;-81
2022/06/24 05:22:48;;;;;;;7.05;2.08;;;30.80;88.20;;;;;;6284241;28;20066;-81
2022/06/24 05:25:51;;;;;;;4.38;1.70;;;32.80;82.60;;;;;;6281973;28;20045;-79
2022/06/24 05:28:53;;;;;;;7.20;1.83;;;34.80;75.50;;;;;;6280284;28;20532;-80
2022/06/24 05:31:54;;;;;;;9.90;1.88;;;35.30;68.70;;;;;;6280801;28;20101;-80
2022/06/24 05:34:57;;;;;;;5.22;1.92;;;34.20;69.10;;;;;;6280552;28;20056;-81
2022/06/24 05:37:58;;;;;;;9.35;1.58;;;32.50;72.50;;;;;;6279924;28;20052;-82
2022/06/24 05:41:03;;;;;;;3.85;1.50;;;32.80;75.20;;;;;;6287465;28;20444;-80
2022/06/24 05:44:05;;;;;;;6.63;1.35;;;33.50;74.00;;;;;;6283219;28;20124;-81
2022/06/24 05:47:06;;;;;;;11.85;2.05;;;33.10;69.90;;;;;;6282600;28;20045;-80
2022/06/24 05:50:09;;;;;;;8.48;1.83;;;31.20;74.40;;;;;;6282764;28;20049;-80
2022/06/24 05:56:32;;;;;;;11.60;3.10;;;29.00;83.10;;;;;;6280243;28;20550;-80
2022/06/24 05:59:37;;;;;;;8.50;1.67;;;29.60;86.40;;;;;;6279663;28;20056;-81
2022/06/24 06:02:39;;;;;;;8.32;1.65;;;32.80;77.60;;;;;;6280113;28;20396;-82
2022/06/24 06:05:40;;;;;;;4.40;1.67;;;35.20;65.90;;;;;;6281342;28;20037;-80
2022/06/24 06:08:42;;;;;;;12.40;1.92;;;35.50;61.00;;;;;;6280436;28;20049;-83
2022/06/24 06:11:45;;;;;;;7.50;1.75;;;34.60;59.20;;;;;;6281326;28;20048;-82
2022/06/24 06:14:47;;;;;;;11.30;1.77;;;33.40;63.50;;;;;;6280673;28;20051;-82
2022/06/24 06:17:49;;;;;;;8.00;1.65;;;32.80;65.60;;;;;;6279265;28;20049;-80
2022/06/24 06:20:51;;;;;;;5.03;1.40;;;32.60;64.70;;;;;;6279175;28;20530;-82
2022/06/24 06:23:52;;;;;;;15.20;1.58;;;32.60;65.60;;;;;;6279646;28;20414;-82
2022/06/24 06:26:55;;;;;;;11.60;2.00;;;33.10;65.50;;;;;;6283974;28;20045;-81
2022/06/24 06:29:58;;;;;;;9.07;2.00;;;33.20;62.40;;;;;;6292689;28;20037;-78
2022/06/24 06:33:00;;;;;;;8.27;1.67;;;32.80;63.30;;;;;;6283688;28;20062;-82
2022/06/24 06:36:03;;;;;;;8.48;1.95;;;34.00;63.20;;;;;;6279794;28;20052;-80
2022/06/24 06:39:04;;;;;;;11.88;1.73;;;35.70;58.40;;;;;;6245331;28;20054;-79
2022/06/24 06:42:08;;;;;;;8.43;1.75;;;36.70;54.90;;;;;;6274264;28;20057;-80
2022/06/24 06:45:10;;;;;;;8.43;1.13;;;37.50;52.10;;;;;;6282535;28;20049;-78
2022/06/24 06:48:12;;;;;;;4.30;1.20;;;36.80;53.40;;;;;;6279988;28;20116;-82
2022/06/24 06:51:14;;;;;;;8.77;1.55;;;35.10;55.50;;;;;;6276431;28;20046;-82
2022/06/24 06:54:15;;;;;;;9.20;2.08;;;33.00;60.00;;;;;;6258185;28;20042;-82
2022/06/24 06:57:18;;;;;;;6.07;1.25;;;31.20;64.10;;;;;;6255415;28;20438;-80
2022/06/24 07:00:21;;;;;;;9.38;1.45;;;30.00;69.60;;;;;;6254739;28;20056;-79
2022/06/24 07:03:23;;;;;;;8.25;1.95;;;29.00;72.80;;;;;;6266773;28;20048;-79
2022/06/24 07:06:25;;;;;;;10.40;2.20;;;28.30;75.10;;;;;;6280186;28;20055;-81
2022/06/24 07:09:26;;;;;;;5.93;1.77;;;27.60;77.80;;;;;;6280654;28;20045;-79
2022/06/24 07:12:30;;;;;;;9.15;1.52;;;27.10;81.30;;;;;;6282016;28;20041;-79
2022/06/24 07:15:31;;;;;;;4.38;1.23;;;26.80;83.80;;;;;;6282800;28;20049;-81
2022/06/24 07:18:33;;;;;;;11.02;2.10;;;26.60;85.60;;;;;;6281860;28;20576;-79
2022/06/24 07:21:35;;;;;;;2.80;1.20;;;26.30;86.60;;;;;;6282018;28;20064;-81
2022/06/24 07:24:37;;;;;;;7.82;1.80;;;26.20;88.10;;;;;;6281197;28;20125;-78
2022/06/24 07:27:40;;;;;;;8.20;1.30;;;26.10;88.60;;;;;;6282762;28;20045;-79
2022/06/24 07:30:41;;;;;;;7.28;1.63;;;25.90;89.60;;;;;;6282583;28;20048;-79
2022/06/24 07:33:43;;;;;;;4.32;1.30;;;25.90;90.20;;;;;;6283080;28;20051;-81
2022/06/24 07:36:45;;;;;;;6.00;2.22;;;25.80;90.50;;;;;;6280760;28;20063;-80
2022/06/24 07:39:47;;;;;;;3.30;1.27;;;25.80;90.70;;;;;;6270775;28;20045;-79
2022/06/24 07:42:50;;;;;;;4.95;1.55;;;25.90;91.10;;;;;;6256488;28;20132;-80
2022/06/24 07:45:52;;;;;;;6.70;0.98;;;25.90;91.30;;;;;;6253916;28;20046;-82
2022/06/24 07:48:53;;;;;;;4.53;1.00;;;25.80;90.70;;;;;;6253548;28;20064;-81
2022/06/24 07:51:55;;;;;;;6.93;1.17;;;25.60;90.40;;;;;;6254163;28;20053;-80
2022/06/24 07:58:14;;;;;;;6.30;1.38;;;25.20;91.60;;;;;;6252040;28;20072;-81
2022/06/24 08:01:16;;;;;;;12.43;1.95;;;25.50;91.70;;;;;;6253748;28;20075;-82
2022/06/24 08:04:18;;;;;;;2.15;1.42;;;26.00;91.00;;;;;;6254750;28;20462;-82
2022/06/24 08:07:20;;;;;;;5.35;1.20;;;26.50;90.90;;;;;;6254591;28;20045;-80
2022/06/24 08:10:21;;;;;;;6.55;1.55;;;26.90;90.20;;;;;;6254572;28;20049;-80
2022/06/24 08:13:25;;;;;;;9.05;1.23;;;27.30;89.20;;;;;;6254432;28;20569;-78
2022/06/24 08:16:26;;;;;;;10.60;1.23;;;27.90;88.70;;;;;;6254511;28;20041;-80
2022/06/24 08:19:28;;;;;;;7.63;1.15;;;28.20;84.90;;;;;;6253548;28;20053;-82
2022/06/24 08:22:30;;;;;;;5.50;1.30;;;28.30;83.90;;;;;;6254043;28;20052;-82
2022/06/24 08:25:32;;;;;;;7.38;1.23;;;28.20;83.10;;;;;;6264091;28;20047;-81
2022/06/24 08:28:35;;;;;;;4.05;1.13;;;28.20;83.50;;;;;;6267508;28;20053;-81
2022/06/24 08:31:37;;;;;;;6.68;0.85;;;28.10;79.90;;;;;;6252928;28;20427;-81
2022/06/24 08:34:38;;;;;;;5.78;0.95;;;27.90;83.10;;;;;;6254766;28;20049;-81
2022/06/24 08:37:40;;;;;;;5.57;1.30;;;28.00;83.50;;;;;;6254425;28;20055;-79
2022/06/24 08:40:46;;;;;;;4.72;1.27;;;28.10;81.40;;;;;;6253287;28;20286;-79
2022/06/24 08:43:51;;;;;;;3.90;1.10;;;28.10;79.70;;;;;;6253755;28;20057;-79
2022/06/24 08:46:53;;;;;;;4.72;1.17;;;28.10;81.00;;;;;;6253464;28;20129;-78
2022/06/24 08:49:55;;;;;;;4.72;1.35;;;28.40;81.50;;;;;;6254412;28;20049;-80
2022/06/24 08:52:57;;;;;;;4.78;0.90;;;28.50;79.70;;;;;;6254985;28;20045;-78
2022/06/24 08:55:58;;;;;;;2.72;0.98;;;28.40;78.50;;;;;;6254860;28;20140;-78
2022/06/24 08:59:02;;;;;;;2.88;0.65;;;28.20;80.60;;;;;;6254176;28;20054;-80
2022/06/24 09:02:04;;;;;;;6.47;1.10;;;28.20;79.40;;;;;;6254499;28;20051;-80
2022/06/24 09:05:09;;;;;;;5.85;1.65;;;28.10;79.60;;;;;;6268414;28;20063;-79
2022/06/24 09:08:13;;;;;;;1.80;0.70;;;28.00;80.60;;;;;;6279918;28;20045;-80
2022/06/24 09:11:15;;;;;;;3.45;1.02;;;28.20;82.00;;;;;;6280221;28;20080;-80
2022/06/24 09:14:18;;;;;;;10.70;0.98;;;28.50;79.60;;;;;;6280661;28;20067;-79
2022/06/24 09:17:28;;;;;;;6.93;1.08;;;28.60;79.00;;;;;;6280312;28;20414;-79
2022/06/24 09:20:32;;;;;;;3.95;1.27;;;28.90;74.80;;;;;;6280662;28;20052;-80
2022/06/24 09:23:50;;;;;;;7.35;1.30;;;29.00;75.30;;;;;;6281303;28;20631;-81
2022/06/24 09:27:00;;;;;;;;;;;29.10;74.20;;;;;;6281813;28;20045;-81
2022/06/24 09:30:03;;;;;;;4.18;1.08;;;29.00;75.50;;;;;;6280444;28;19925;-80
2022/06/24 09:33:05;;;;;;;3.03;0.73;;;29.00;71.80;;;;;;6281406;28;20045;-80
2022/06/24 09:36:08;;;;;;;4.15;0.75;;;29.00;73.30;;;;;;6280111;28;20063;-79
2022/06/24 09:39:12;;;;;;;5.97;0.70;;;29.20;70.90;;;;;;6281749;28;20055;-78
2022/06/24 09:42:20;;;;;;;2.92;0.68;;;29.40;69.70;;;;;;6281162;28;20049;-79
2022/06/24 09:45:24;;;;;;;3.88;0.88;;;29.50;66.60;;;;;;6281423;28;20406;-80
2022/06/24 09:48:28;;;;;;;4.72;0.73;;;29.50;64.80;;;;;;6281039;28;20049;-79
2022/06/24 09:51:30;;;;;;;9.55;1.05;;;29.60;64.90;;;;;;6282174;28;20060;-79
2022/06/24 09:54:33;;;;;;;1.60;0.75;;;29.90;64.80;;;;;;6283898;28;20044;-80
2022/06/24 09:57:35;;;;;;;2.20;0.50;;;30.30;63.90;;;;;;6284720;28;20391;-80
2022/06/24 10:00:41;;;;;;;6.90;1.05;;;30.40;61.20;;;;;;6286075;28;20059;-79
2022/06/24 10:03:52;;;;;;;3.40;0.60;;;30.70;60.40;;;;;;6283683;28;20049;-79
2022/06/24 10:06:56;;;;;;;8.55;0.73;;;31.00;60.10;;;;;;6264067;28;20086;-80
2022/06/24 10:10:00;;;;;;;4.60;0.98;;;31.30;59.40;;;;;;6261264;28;20059;-80
2022/06/24 10:13:07;;;;;;;2.35;0.70;;;30.90;59.90;;;;;;6262403;28;20046;-80
2022/06/24 10:16:10;;;;;;;3.70;0.63;;;31.80;56.90;;;;;;6260454;28;20046;-80
2022/06/24 10:19:14;;;;;;;2.90;0.70;;;32.20;53.20;;;;;;6261123;28;20060;-80
2022/06/24 10:22:38;;;;;;;3.35;0.68;;;31.60;55.40;;;;;;6262068;28;20049;-79
2022/06/24 10:25:53;;;;;;;2.40;0.65;;;31.60;56.50;;;;;;6262069;28;20056;-80
2022/06/24 10:29:20;;;;;;;4.43;0.73;;;31.70;56.70;;;;;;6262023;28;20053;-81
2022/06/24 10:32:23;;;;;;;2.92;0.85;;;31.50;55.10;;;;;;6262863;28;20530;-80
2022/06/24 10:35:25;;;;;;;2.47;0.70;;;31.20;55.00;;;;;;6262563;28;20056;-80
2022/06/24 10:38:34;;;;;;;4.88;0.52;;;31.30;53.90;;;;;;6263149;28;20063;-80
2022/06/24 10:41:41;;;;;;;4.50;0.68;;;31.30;54.70;;;;;;6289316;28;20051;-82
2022/06/24 10:44:57;;;;;;;1.08;0.35;;;31.50;54.40;;;;;;6289524;28;20045;-81
2022/06/24 10:48:00;;;;;;;1.45;0.32;;;31.60;52.00;;;;;;6288508;28;20049;-81
2022/06/24 10:51:13;;;;;;;1.05;0.43;;;31.50;51.90;;;;;;6285389;28;20044;-77
2022/06/24 10:54:15;;;;;;;2.97;0.55;;;31.30;52.10;;;;;;6281445;28;20070;-80
2022/06/24 10:57:17;;;;;;;2.70;0.47;;;31.20;51.60;;;;;;6278521;28;20055;-83
2022/06/24 11:00:20;;;;;;;0.22;0.20;;;31.20;51.40;;;;;;6277402;28;20037;-82
2022/06/24 11:03:33;;;;;;;2.40;0.45;;;31.60;51.30;;;;;;6286334;28;20057;-82
2022/06/24 11:06:35;;;;;;;1.20;0.40;;;32.00;51.20;;;;;;6273151;28;20491;-82
2022/06/24 11:09:37;;;;;;;1.00;0.40;;;32.30;50.20;;;;;;6284460;28;20049;-81
2022/06/24 11:12:39;;;;;;;1.13;0.22;;;32.50;49.70;;;;;;6285363;28;20045;-82
2022/06/24 11:15:43;;;;;;;1.80;0.50;;;32.50;49.90;;;;;;6285872;28;20060;-82
2022/06/24 11:18:50;;;;;;;5.30;0.73;;;32.40;49.10;;;;;;6281845;28;20048;-79
2022/06/24 11:21:52;;;;;;;1.33;0.32;;;32.10;49.80;;;;;;6278450;28;20049;-80
2022/06/24 11:24:54;;;;;;;4.80;0.75;;;31.90;50.20;;;;;;6283112;28;20060;-82
2022/06/24 11:27:55;;;;;;;2.72;0.47;;;31.60;49.90;;;;;;6280737;28;20041;-80
2022/06/24 11:31:14;;;;;;;4.18;0.50;;;31.20;51.00;;;;;;6279485;28;20056;-82
2022/06/24 11:34:17;;;;;;;3.30;0.45;;;30.90;50.80;;;;;;6279607;28;20056;-80
2022/06/24 11:37:22;;;;;;;3.70;0.57;;;30.90;51.60;;;;;;6278931;28;20045;-80
2022/06/24 11:40:27;;;;;;;3.15;0.30;;;30.90;51.90;;;;;;6263295;28;20049;-80
2022/06/24 11:43:29;;;;;;;3.92;0.68;;;30.90;51.00;;;;;;6253933;28;20046;-80
2022/06/24 11:46:32;;;;;;;2.05;0.40;;;30.90;51.30;;;;;;6253294;28;20410;-80
2022/06/24 11:49:37;;;;;;;1.52;0.65;;;30.90;51.00;;;;;;6253341;28;20045;-80
2022/06/24 11:52:45;;;;;;;0.80;0.40;;;30.90;51.30;;;;;;6252293;28;20439;-80
2022/06/24 11:55:51;;;;;;;6.65;0.50;;;30.90;51.40;;;;;;6252808;28;20057;-80
2022/06/24 11:58:52;;;;;;;0.70;0.52;;;30.70;51.40;;;;;;6253207;28;20057;-81
2022/06/24 12:01:55;;;;;;;1.48;0.35;;;30.60;51.40;;;;;;6254910;28;20618;-78
2022/06/24 12:04:58;;;;;;;2.35;0.30;;;30.60;51.30;;;;;;6250782;28;20052;-81
2022/06/24 12:08:01;;;;;;;3.20;0.57;;;30.50;51.60;;;;;;6256076;28;20049;-80
2022/06/24 12:11:12;;;;;;;2.75;0.75;;;30.70;51.40;;;;;;6273487;28;20417;-79
2022/06/24 12:14:18;;;;;;;1.55;0.50;;;30.90;51.20;;;;;;6272690;28;20522;-82
2022/06/24 12:17:20;;;;;;;2.15;0.45;;;31.00;50.80;;;;;;6263948;28;20037;-79
2022/06/24 12:20:24;;;;;;;2.25;0.45;;;31.10;51.50;;;;;;6271887;28;20067;-78
2022/06/24 12:23:35;;;;;;;3.45;0.63;;;31.30;50.00;;;;;;6257308;28;20049;-81
2022/06/24 12:26:44;;;;;;;1.48;0.40;;;31.60;50.10;;;;;;6247970;28;20360;-79
2022/06/24 12:29:48;;;;;;;1.05;0.20;;;31.80;49.60;;;;;;6247300;28;20052;-81
2022/06/24 12:32:51;;;;;;;2.15;0.43;;;31.90;48.40;;;;;;6249241;28;20045;-80
2022/06/24 12:36:12;;;;;;;0.90;0.40;;;31.60;48.00;;;;;;6248247;28;20056;-81
2022/06/24 12:39:14;;;;;;;0.95;0.40;;;31.40;48.90;;;;;;6247505;28;20050;-80
2022/06/24 12:42:18;;;;;;;0.80;0.38;;;31.30;49.70;;;;;;6247987;28;20068;-79
2022/06/24 12:45:25;;;;;;;1.85;0.40;;;31.40;48.50;;;;;;6254781;28;20533;-80
2022/06/24 12:51:50;;;;;;;1.77;0.65;;;31.40;48.30;;;;;;6273652;28;20045;-81
2022/06/24 12:54:52;;;;;;;1.38;0.28;;;31.50;48.70;;;;;;6274654;28;20048;-86
2022/06/24 12:57:54;;;;;;;0.90;0.20;;;32.00;49.20;;;;;;6274996;28;20079;-77
2022/06/24 13:00:56;;;;;;;1.25;0.38;;;32.50;48.10;;;;;;6271876;28;20049;-81
2022/06/24 13:03:58;;;;;;;1.20;0.30;;;32.80;47.30;;;;;;6271315;28;20100;-80
2022/06/24 13:07:04;;;;;;;1.55;0.35;;;33.10;47.00;;;;;;6269185;28;20392;-84
2022/06/24 13:10:08;;;;;;;2.50;0.30;;;33.60;45.80;;;;;;6248231;28;20045;-82
2022/06/24 13:13:10;;;;;;;2.55;0.38;;;33.40;45.30;;;;;;6247527;28;20041;-80
2022/06/24 13:16:11;;;;;;;1.38;0.50;;;33.30;45.00;;;;;;6255360;28;20048;-79
2022/06/24 13:19:13;;;;;;;0.85;0.35;;;33.20;46.00;;;;;;6271637;28;20080;-80
2022/06/24 13:22:16;;;;;;;2.25;0.22;;;33.20;46.00;;;;;;6270803;28;20052;-82
2022/06/24 13:25:18;;;;;;;0.90;0.47;;;33.40;46.40;;;;;;6271786;28;20065;-81
2022/06/24 13:28:20;;;;;;;1.85;0.30;;;33.50;45.50;;;;;;6271840;28;20041;-79
2022/06/24 13:31:22;;;;;;;3.20;1.35;;;33.20;44.90;;;;;;6277815;28;20487;-80
2022/06/24 13:34:25;;;;;;;0.50;0.20;;;33.00;45.30;;;;;;6276612;28;20048;-80
2022/06/24 13:37:29;;;;;;;3.35;0.50;;;33.00;45.80;;;;;;6276895;28;20037;-82
2022/06/24 13:40:30;;;;;;;2.58;0.57;;;33.00;45.00;;;;;;6276695;28;20041;-80
2022/06/24 13:43:32;;;;;;;2.65;0.40;;;32.80;45.80;;;;;;6277805;28;20049;-81
2022/06/24 13:46:34;;;;;;;3.42;0.45;;;32.60;46.10;;;;;;6273960;28;20060;-79
2022/06/24 13:49:36;;;;;;;4.05;0.52;;;32.30;47.00;;;;;;6252276;28;20835;-80
2022/06/24 13:52:39;;;;;;;1.55;0.40;;;31.90;47.90;;;;;;6251769;28;20048;-80
2022/06/24 13:55:41;;;;;;;4.22;0.60;;;31.40;48.30;;;;;;6252956;28;20183;-78
2022/06/24 13:58:42;;;;;;;1.10;0.30;;;30.90;48.60;;;;;;6252623;28;20041;-80
2022/06/24 14:01:45;;;;;;;1.42;0.38;;;30.40;50.10;;;;;;6252104;28;20053;-80
2022/06/24 14:04:46;;;;;;;1.58;0.43;;;30.00;51.60;;;;;;6252306;28;20054;-81
2022/06/24 14:07:50;;;;;;;2.38;0.70;;;29.60;52.80;;;;;;6252930;28;20450;-80
2022/06/24 14:10:51;;;;;;;4.00;0.65;;;29.20;55.40;;;;;;6262188;28;20392;-81
2022/06/24 14:13:54;;;;;;;1.40;0.70;;;29.00;56.20;;;;;;6252265;28;20045;-79
2022/06/24 14:16:56;;;;;;;3.47;0.50;;;28.70;57.10;;;;;;6265650;28;20041;-79
2022/06/24 14:19:58;;;;;;;0.77;0.40;;;28.60;57.80;;;;;;6276802;28;20049;-79
2022/06/24 14:26:21;;;;;;;4.38;0.50;;;28.90;58.40;;;;;;6276318;28;20101;-79
2022/06/24 14:29:22;;;;;;;2.65;0.57;;;29.00;59.30;;;;;;6273854;28;20053;-79
2022/06/24 14:32:24;;;;;;;2.10;0.70;;;29.20;59.20;;;;;;6275708;28;20063;-79
2022/06/24 14:35:26;;;;;;;3.70;0.88;;;29.40;57.40;;;;;;6274166;28;20139;-80
2022/06/24 14:41:49;;;;;;;4.32;1.02;;;29.50;58.20;;;;;;6274240;28;20108;-79
2022/06/24 14:44:50;;;;;;;3.63;1.00;;;29.80;58.50;;;;;;6265347;28;20584;-82
2022/06/24 14:47:52;;;;;;;2.55;0.50;;;30.10;58.10;;;;;;6251316;28;20047;-81
2022/06/24 14:50:54;;;;;;;2.30;0.68;;;30.30;56.60;;;;;;6250568;28;20056;-83
2022/06/24 14:53:58;;;;;;;4.65;0.63;;;30.30;56.00;;;;;;6251363;28;20530;-82
2022/06/24 14:57:00;;;;;;;1.95;0.50;;;30.10;56.50;;;;;;6250829;28;20061;-83
2022/06/24 15:00:02;;;;;;;2.53;0.82;;;30.00;58.10;;;;;;6254494;28;20060;-81
2022/06/24 15:03:04;;;;;;;3.90;0.65;;;30.00;58.20;;;;;;6254757;28;20470;-80
2022/06/24 15:09:18;;;;;;;4.55;1.02;;;29.80;58.30;;;;;;7026846;23;20052;-83
2022/06/24 15:12:20;;;;;;;2.30;0.57;;;29.30;59.30;;;;;;6251894;28;20109;-83
2022/06/24 15:15:22;;;;;;;2.13;0.30;;;28.90;60.70;;;;;;6273399;28;20055;-82
2022/06/24 15:18:23;;;;;;;3.80;0.93;;;28.70;61.90;;;;;;6257017;28;20088;-82
2022/06/24 15:21:25;;;;;;;1.88;0.77;;;28.50;62.80;;;;;;6230429;28;20056;-82
2022/06/24 15:24:28;;;;;;;1.60;0.57;;;28.30;64.20;;;;;;6233014;28;20050;-82
2022/06/24 15:27:30;;;;;;;1.00;0.60;;;28.10;64.30;;;;;;6239236;23;20527;-81
2022/06/24 15:30:32;;;;;;;2.92;0.50;;;27.90;65.10;;;;;;6223579;28;20065;-81
2022/06/24 15:33:34;;;;;;;3.13;0.60;;;27.70;65.30;;;;;;6227866;28;20046;-82
2022/06/24 15:36:36;;;;;;;2.00;0.60;;;27.60;65.80;;;;;;6230926;28;20052;-82
2022/06/24 15:39:39;;;;;;;3.53;0.57;;;27.50;65.20;;;;;;6251811;28;20554;-82
2022/06/24 15:42:41;;;;;;;1.20;0.40;;;27.40;65.30;;;;;;6251783;28;20053;-83
2022/06/24 15:45:43;;;;;;;3.03;0.73;;;27.20;65.10;;;;;;6243449;28;20047;-82
2022/06/24 15:48:44;;;;;;;1.52;0.80;;;26.90;65.70;;;;;;6247807;28;20498;-82
2022/06/24 15:51:46;;;;;;;1.95;0.43;;;26.90;66.00;;;;;;6250343;28;20419;-81
2022/06/24 15:54:50;;;;;;;1.42;0.43;;;26.90;65.70;;;;;;6239585;28;20065;-81
2022/06/24 15:57:51;;;;;;;4.35;0.40;;;26.80;64.90;;;;;;6225302;28;20037;-81
2022/06/24 16:00:53;;;;;;;0.75;0.20;;;26.50;64.00;;;;;;6225823;28;20419;-81
2022/06/24 16:03:55;;;;;;;0.40;0.10;;;26.20;62.00;;;;;;6225353;28;20419;-81
2022/06/24 16:06:58;;;;;;;0.55;0.28;;;25.80;63.00;;;;;;6225564;28;20054;-82
2022/06/24 16:10:01;;;;;;;0.90;0.30;;;25.40;64.50;;;;;;6224443;28;20053;-82
2022/06/24 16:13:03;;;;;;;1.17;0.17;;;25.00;65.30;;;;;;6223458;28;20054;-82
2022/06/24 16:16:05;;;;;;;2.30;0.40;;;24.70;66.60;;;;;;6235761;28;20522;-81